sensor_id;sensor_type;location;lat;lon;timestamp;temperature;humidity
13332;DHT22;6735;51.456;12.626;2022-08-21T00:01:10;19.60;87.70
13332;DHT22;6735;51.456;12.626;2022-08-21T00:03:36;19.50;87.80
13332;DHT22;6735;51.456;12.626;2022-08-21T00:06:02;19.50;87.80
13332;DHT22;6735;51.456;12.626;2022-08-21T00:08:28;19.50;87.80
13332;DHT22;6735;51.456;12.626;2022-08-21T00:10:53;19.40;87.90
13332;DHT22;6735;51.456;12.626;2022-08-21T00:13:19;19.40;87.80
13332;DHT22;6735;51.456;12.626;2022-08-21T00:15:45;19.40;87.80
13332;DHT22;6735;51.456;12.626;2022-08-21T00:18:11;19.40;87.90
13332;DHT22;6735;51.456;12.626;2022-08-21T00:20:37;19.40;87.80
13332;DHT22;6735;51.456;12.626;2022-08-21T00:23:03;19.40;87.80
13332;DHT22;6735;51.456;12.626;2022-08-21T00:25:29;19.30;87.90
13332;DHT22;6735;51.456;12.626;2022-08-21T00:27:56;19.30;87.80
13332;DHT22;6735;51.456;12.626;2022-08-21T00:30:23;19.30;87.80
13332;DHT22;6735;51.456;12.626;2022-08-21T00:32:50;19.20;87.80
13332;DHT22;6735;51.456;12.626;2022-08-21T00:35:18;19.20;87.90
13332;DHT22;6735;51.456;12.626;2022-08-21T00:37:44;19.20;87.90
13332;DHT22;6735;51.456;12.626;2022-08-21T00:40:14;19.20;87.90
13332;DHT22;6735;51.456;12.626;2022-08-21T00:42:40;19.20;87.90
13332;DHT22;6735;51.456;12.626;2022-08-21T00:45:06;19.10;87.90
13332;DHT22;6735;51.456;12.626;2022-08-21T00:47:32;19.10;87.90
13332;DHT22;6735;51.456;12.626;2022-08-21T00:49:57;19.10;87.90
13332;DHT22;6735;51.456;12.626;2022-08-21T00:52:27;19.10;87.90
13332;DHT22;6735;51.456;12.626;2022-08-21T00:54:55;19.10;87.90
13332;DHT22;6735;51.456;12.626;2022-08-21T00:57:27;19.10;87.90
13332;DHT22;6735;51.456;12.626;2022-08-21T00:59:56;19.10;87.90
13332;DHT22;6735;51.456;12.626;2022-08-21T01:02:23;19.00;87.80
13332;DHT22;6735;51.456;12.626;2022-08-21T01:04:49;19.00;87.80
13332;DHT22;6735;51.456;12.626;2022-08-21T01:07:15;19.00;87.90
13332;DHT22;6735;51.456;12.626;2022-08-21T01:09:41;19.00;87.80
13332;DHT22;6735;51.456;12.626;2022-08-21T01:12:07;19.00;87.80
13332;DHT22;6735;51.456;12.626;2022-08-21T01:14:33;18.90;87.80
13332;DHT22;6735;51.456;12.626;2022-08-21T01:16:59;18.90;87.70
13332;DHT22;6735;51.456;12.626;2022-08-21T01:19:26;18.90;87.80
13332;DHT22;6735;51.456;12.626;2022-08-21T01:21:52;18.80;87.80
13332;DHT22;6735;51.456;12.626;2022-08-21T01:24:18;18.90;87.90
13332;DHT22;6735;51.456;12.626;2022-08-21T01:26:44;18.80;87.90
13332;DHT22;6735;51.456;12.626;2022-08-21T01:29:38;18.80;88.00
13332;DHT22;6735;51.456;12.626;2022-08-21T01:32:14;18.80;88.00
13332;DHT22;6735;51.456;12.626;2022-08-21T01:34:42;18.70;88.10
13332;DHT22;6735;51.456;12.626;2022-08-21T01:37:09;18.80;88.10
13332;DHT22;6735;51.456;12.626;2022-08-21T01:39:35;18.70;88.00
13332;DHT22;6735;51.456;12.626;2022-08-21T01:42:01;18.70;88.10
13332;DHT22;6735;51.456;12.626;2022-08-21T01:44:27;18.70;88.20
13332;DHT22;6735;51.456;12.626;2022-08-21T01:46:54;18.70;88.30
13332;DHT22;6735;51.456;12.626;2022-08-21T01:49:20;18.70;88.20
13332;DHT22;6735;51.456;12.626;2022-08-21T01:51:46;18.70;88.20
13332;DHT22;6735;51.456;12.626;2022-08-21T01:54:11;18.70;88.20
13332;DHT22;6735;51.456;12.626;2022-08-21T01:56:46;18.70;88.20
13332;DHT22;6735;51.456;12.626;2022-08-21T01:59:13;18.80;88.00
13332;DHT22;6735;51.456;12.626;2022-08-21T02:01:38;18.70;88.00
13332;DHT22;6735;51.456;12.626;2022-08-21T02:04:08;18.80;88.00
13332;DHT22;6735;51.456;12.626;2022-08-21T02:06:34;18.80;88.00
13332;DHT22;6735;51.456;12.626;2022-08-21T02:09:02;18.80;87.90
13332;DHT22;6735;51.456;12.626;2022-08-21T02:11:28;18.80;87.80
13332;DHT22;6735;51.456;12.626;2022-08-21T02:13:53;18.70;87.80
13332;DHT22;6735;51.456;12.626;2022-08-21T02:16:19;18.70;87.70
13332;DHT22;6735;51.456;12.626;2022-08-21T02:18:44;18.80;87.70
13332;DHT22;6735;51.456;12.626;2022-08-21T02:21:09;18.70;87.70
13332;DHT22;6735;51.456;12.626;2022-08-21T02:23:35;18.70;87.60
13332;DHT22;6735;51.456;12.626;2022-08-21T02:26:02;18.70;87.50
13332;DHT22;6735;51.456;12.626;2022-08-21T02:28:28;18.70;87.50
13332;DHT22;6735;51.456;12.626;2022-08-21T02:30:55;18.60;87.50
13332;DHT22;6735;51.456;12.626;2022-08-21T02:33:21;18.60;87.50
13332;DHT22;6735;51.456;12.626;2022-08-21T02:35:48;18.50;87.30
13332;DHT22;6735;51.456;12.626;2022-08-21T02:38:17;18.50;87.30
13332;DHT22;6735;51.456;12.626;2022-08-21T02:40:46;18.50;87.20
13332;DHT22;6735;51.456;12.626;2022-08-21T02:43:12;18.50;87.20
13332;DHT22;6735;51.456;12.626;2022-08-21T02:45:38;18.40;87.20
13332;DHT22;6735;51.456;12.626;2022-08-21T02:48:09;18.40;87.20
13332;DHT22;6735;51.456;12.626;2022-08-21T02:50:41;18.40;87.20
13332;DHT22;6735;51.456;12.626;2022-08-21T02:53:09;18.40;87.20
13332;DHT22;6735;51.456;12.626;2022-08-21T02:55:36;18.30;87.20
13332;DHT22;6735;51.456;12.626;2022-08-21T02:58:02;18.30;87.20
13332;DHT22;6735;51.456;12.626;2022-08-21T03:00:30;18.30;87.30
13332;DHT22;6735;51.456;12.626;2022-08-21T03:02:56;18.20;87.20
13332;DHT22;6735;51.456;12.626;2022-08-21T03:05:23;18.20;87.20
13332;DHT22;6735;51.456;12.626;2022-08-21T03:07:49;18.20;87.10
13332;DHT22;6735;51.456;12.626;2022-08-21T03:10:15;18.20;87.10
13332;DHT22;6735;51.456;12.626;2022-08-21T03:12:41;18.20;87.10
13332;DHT22;6735;51.456;12.626;2022-08-21T03:15:09;18.10;87.20
13332;DHT22;6735;51.456;12.626;2022-08-21T03:17:36;18.10;87.10
13332;DHT22;6735;51.456;12.626;2022-08-21T03:20:04;18.10;87.00
13332;DHT22;6735;51.456;12.626;2022-08-21T03:22:29;18.10;87.10
13332;DHT22;6735;51.456;12.626;2022-08-21T03:24:55;18.00;87.00
13332;DHT22;6735;51.456;12.626;2022-08-21T03:27:22;18.00;87.00
13332;DHT22;6735;51.456;12.626;2022-08-21T03:29:48;18.00;86.80
13332;DHT22;6735;51.456;12.626;2022-08-21T03:32:13;18.00;86.70
13332;DHT22;6735;51.456;12.626;2022-08-21T03:34:39;18.00;86.60
13332;DHT22;6735;51.456;12.626;2022-08-21T03:37:06;17.90;86.50
13332;DHT22;6735;51.456;12.626;2022-08-21T03:39:32;17.90;86.60
13332;DHT22;6735;51.456;12.626;2022-08-21T03:41:57;17.90;86.50
13332;DHT22;6735;51.456;12.626;2022-08-21T03:44:25;17.90;86.50
13332;DHT22;6735;51.456;12.626;2022-08-21T03:46:53;17.90;86.50
13332;DHT22;6735;51.456;12.626;2022-08-21T03:49:18;17.90;86.60
13332;DHT22;6735;51.456;12.626;2022-08-21T03:51:44;17.90;86.60
13332;DHT22;6735;51.456;12.626;2022-08-21T03:54:09;17.90;86.50
13332;DHT22;6735;51.456;12.626;2022-08-21T03:56:35;17.80;86.50
13332;DHT22;6735;51.456;12.626;2022-08-21T03:59:00;17.80;86.50
13332;DHT22;6735;51.456;12.626;2022-08-21T04:01:27;17.80;86.50
13332;DHT22;6735;51.456;12.626;2022-08-21T04:03:53;17.80;86.60
13332;DHT22;6735;51.456;12.626;2022-08-21T04:06:18;17.70;86.50
13332;DHT22;6735;51.456;12.626;2022-08-21T04:08:44;17.70;86.30
13332;DHT22;6735;51.456;12.626;2022-08-21T04:11:09;17.70;86.30
13332;DHT22;6735;51.456;12.626;2022-08-21T04:13:40;17.70;86.10
13332;DHT22;6735;51.456;12.626;2022-08-21T04:16:06;17.70;86.20
13332;DHT22;6735;51.456;12.626;2022-08-21T04:18:32;17.70;86.10
13332;DHT22;6735;51.456;12.626;2022-08-21T04:20:58;17.70;86.10
13332;DHT22;6735;51.456;12.626;2022-08-21T04:23:24;17.70;86.20
13332;DHT22;6735;51.456;12.626;2022-08-21T04:25:51;17.70;86.20
13332;DHT22;6735;51.456;12.626;2022-08-21T04:28:17;17.70;86.10
13332;DHT22;6735;51.456;12.626;2022-08-21T04:30:43;17.70;86.20
13332;DHT22;6735;51.456;12.626;2022-08-21T04:33:08;17.70;86.20
13332;DHT22;6735;51.456;12.626;2022-08-21T04:35:34;17.70;86.10
13332;DHT22;6735;51.456;12.626;2022-08-21T04:37:59;17.70;86.00
13332;DHT22;6735;51.456;12.626;2022-08-21T04:40:26;17.70;85.90
13332;DHT22;6735;51.456;12.626;2022-08-21T04:42:58;17.70;85.70
13332;DHT22;6735;51.456;12.626;2022-08-21T04:45:34;17.70;85.70
13332;DHT22;6735;51.456;12.626;2022-08-21T04:48:02;17.70;85.70
13332;DHT22;6735;51.456;12.626;2022-08-21T04:50:37;17.70;85.60
13332;DHT22;6735;51.456;12.626;2022-08-21T04:53:10;17.70;85.70
13332;DHT22;6735;51.456;12.626;2022-08-21T04:55:36;17.80;85.70
13332;DHT22;6735;51.456;12.626;2022-08-21T04:58:04;17.80;85.60
13332;DHT22;6735;51.456;12.626;2022-08-21T05:00:29;17.80;85.40
13332;DHT22;6735;51.456;12.626;2022-08-21T05:02:56;17.80;85.30
13332;DHT22;6735;51.456;12.626;2022-08-21T05:05:24;17.80;85.30
13332;DHT22;6735;51.456;12.626;2022-08-21T05:07:50;17.80;85.20
13332;DHT22;6735;51.456;12.626;2022-08-21T05:10:17;17.80;85.10
13332;DHT22;6735;51.456;12.626;2022-08-21T05:12:43;17.90;85.00
13332;DHT22;6735;51.456;12.626;2022-08-21T05:15:13;17.90;85.00
13332;DHT22;6735;51.456;12.626;2022-08-21T05:17:40;18.00;84.70
13332;DHT22;6735;51.456;12.626;2022-08-21T05:20:05;18.00;84.60
13332;DHT22;6735;51.456;12.626;2022-08-21T05:22:31;18.00;84.20
13332;DHT22;6735;51.456;12.626;2022-08-21T05:24:57;18.10;84.00
13332;DHT22;6735;51.456;12.626;2022-08-21T05:27:22;18.10;84.00
13332;DHT22;6735;51.456;12.626;2022-08-21T05:29:48;18.20;84.00
13332;DHT22;6735;51.456;12.626;2022-08-21T05:32:14;18.20;83.80
13332;DHT22;6735;51.456;12.626;2022-08-21T05:34:39;18.30;83.80
13332;DHT22;6735;51.456;12.626;2022-08-21T05:37:05;18.40;83.80
13332;DHT22;6735;51.456;12.626;2022-08-21T05:39:31;18.50;83.40
13332;DHT22;6735;51.456;12.626;2022-08-21T05:41:57;18.50;83.30
13332;DHT22;6735;51.456;12.626;2022-08-21T05:44:22;18.60;83.20
13332;DHT22;6735;51.456;12.626;2022-08-21T05:46:48;18.60;82.70
13332;DHT22;6735;51.456;12.626;2022-08-21T05:49:13;18.70;82.70
13332;DHT22;6735;51.456;12.626;2022-08-21T05:51:40;18.70;82.50
13332;DHT22;6735;51.456;12.626;2022-08-21T05:54:06;18.70;82.50
13332;DHT22;6735;51.456;12.626;2022-08-21T05:56:32;18.80;82.50
13332;DHT22;6735;51.456;12.626;2022-08-21T05:58:58;18.80;82.40
13332;DHT22;6735;51.456;12.626;2022-08-21T06:01:24;18.90;82.20
13332;DHT22;6735;51.456;12.626;2022-08-21T06:03:50;18.90;81.80
13332;DHT22;6735;51.456;12.626;2022-08-21T06:06:15;19.00;81.70
13332;DHT22;6735;51.456;12.626;2022-08-21T06:08:41;19.10;81.50
13332;DHT22;6735;51.456;12.626;2022-08-21T06:11:07;19.20;81.40
13332;DHT22;6735;51.456;12.626;2022-08-21T06:13:34;19.20;80.70
13332;DHT22;6735;51.456;12.626;2022-08-21T06:16:09;19.40;79.80
13332;DHT22;6735;51.456;12.626;2022-08-21T06:18:36;19.60;79.70
13332;DHT22;6735;51.456;12.626;2022-08-21T06:21:02;20.00;78.60
13332;DHT22;6735;51.456;12.626;2022-08-21T06:23:27;20.40;77.70
13332;DHT22;6735;51.456;12.626;2022-08-21T06:25:53;20.80;76.50
13332;DHT22;6735;51.456;12.626;2022-08-21T06:28:18;20.90;75.50
13332;DHT22;6735;51.456;12.626;2022-08-21T06:30:44;21.00;75.10
13332;DHT22;6735;51.456;12.626;2022-08-21T06:33:09;21.20;74.70
13332;DHT22;6735;51.456;12.626;2022-08-21T06:35:35;21.30;74.40
13332;DHT22;6735;51.456;12.626;2022-08-21T06:38:01;21.30;73.30
13332;DHT22;6735;51.456;12.626;2022-08-21T06:40:27;21.40;73.80
13332;DHT22;6735;51.456;12.626;2022-08-21T06:42:53;21.60;73.50
13332;DHT22;6735;51.456;12.626;2022-08-21T06:45:19;21.80;73.10
13332;DHT22;6735;51.456;12.626;2022-08-21T06:47:44;22.00;72.20
13332;DHT22;6735;51.456;12.626;2022-08-21T06:50:10;22.00;71.60
13332;DHT22;6735;51.456;12.626;2022-08-21T06:52:37;22.20;71.50
13332;DHT22;6735;51.456;12.626;2022-08-21T06:55:06;22.60;69.60
13332;DHT22;6735;51.456;12.626;2022-08-21T06:57:31;22.60;69.60
13332;DHT22;6735;51.456;12.626;2022-08-21T06:59:57;22.40;69.40
13332;DHT22;6735;51.456;12.626;2022-08-21T07:02:22;22.30;69.80
13332;DHT22;6735;51.456;12.626;2022-08-21T07:04:48;22.20;69.90
13332;DHT22;6735;51.456;12.626;2022-08-21T07:07:13;22.20;70.50
13332;DHT22;6735;51.456;12.626;2022-08-21T07:09:39;22.10;70.30
13332;DHT22;6735;51.456;12.626;2022-08-21T07:12:05;22.00;70.50
13332;DHT22;6735;51.456;12.626;2022-08-21T07:14:31;22.00;70.40
13332;DHT22;6735;51.456;12.626;2022-08-21T07:16:56;22.00;70.10
13332;DHT22;6735;51.456;12.626;2022-08-21T07:19:22;22.10;69.60
13332;DHT22;6735;51.456;12.626;2022-08-21T07:21:47;22.10;69.30
13332;DHT22;6735;51.456;12.626;2022-08-21T07:24:13;22.20;68.80
13332;DHT22;6735;51.456;12.626;2022-08-21T07:26:39;22.10;68.30
13332;DHT22;6735;51.456;12.626;2022-08-21T07:29:04;22.10;68.40
13332;DHT22;6735;51.456;12.626;2022-08-21T07:31:30;21.90;68.70
13332;DHT22;6735;51.456;12.626;2022-08-21T07:33:56;21.90;69.00
13332;DHT22;6735;51.456;12.626;2022-08-21T07:36:21;21.80;69.40
13332;DHT22;6735;51.456;12.626;2022-08-21T07:38:47;21.90;68.70
13332;DHT22;6735;51.456;12.626;2022-08-21T07:41:22;21.90;68.70
13332;DHT22;6735;51.456;12.626;2022-08-21T07:43:48;21.90;68.70
13332;DHT22;6735;51.456;12.626;2022-08-21T07:46:14;22.00;68.20
13332;DHT22;6735;51.456;12.626;2022-08-21T07:48:40;22.20;67.70
13332;DHT22;6735;51.456;12.626;2022-08-21T07:51:13;22.40;67.00
13332;DHT22;6735;51.456;12.626;2022-08-21T07:53:39;22.60;66.60
13332;DHT22;6735;51.456;12.626;2022-08-21T07:56:06;22.80;66.20
13332;DHT22;6735;51.456;12.626;2022-08-21T07:58:32;23.00;65.90
13332;DHT22;6735;51.456;12.626;2022-08-21T08:00:57;23.10;65.50
13332;DHT22;6735;51.456;12.626;2022-08-21T08:03:24;23.20;65.50
13332;DHT22;6735;51.456;12.626;2022-08-21T08:05:50;23.20;65.00
13332;DHT22;6735;51.456;12.626;2022-08-21T08:08:16;23.20;65.00
13332;DHT22;6735;51.456;12.626;2022-08-21T08:10:42;23.30;64.40
13332;DHT22;6735;51.456;12.626;2022-08-21T08:13:08;23.30;64.40
13332;DHT22;6735;51.456;12.626;2022-08-21T08:15:35;23.40;64.00
13332;DHT22;6735;51.456;12.626;2022-08-21T08:18:01;23.40;64.00
13332;DHT22;6735;51.456;12.626;2022-08-21T08:20:27;23.40;64.00
13332;DHT22;6735;51.456;12.626;2022-08-21T08:22:53;23.50;63.50
13332;DHT22;6735;51.456;12.626;2022-08-21T08:25:20;23.60;63.40
13332;DHT22;6735;51.456;12.626;2022-08-21T08:27:45;23.60;62.20
13332;DHT22;6735;51.456;12.626;2022-08-21T08:30:13;23.60;61.20
13332;DHT22;6735;51.456;12.626;2022-08-21T08:32:39;23.60;61.20
13332;DHT22;6735;51.456;12.626;2022-08-21T08:35:06;23.60;60.70
13332;DHT22;6735;51.456;12.626;2022-08-21T08:37:33;23.70;60.00
13332;DHT22;6735;51.456;12.626;2022-08-21T08:39:58;23.80;59.90
13332;DHT22;6735;51.456;12.626;2022-08-21T08:42:30;23.90;59.20
13332;DHT22;6735;51.456;12.626;2022-08-21T08:45:06;23.90;56.60
13332;DHT22;6735;51.456;12.626;2022-08-21T08:47:36;24.00;56.40
13332;DHT22;6735;51.456;12.626;2022-08-21T08:50:09;24.20;57.60
13332;DHT22;6735;51.456;12.626;2022-08-21T08:52:42;24.40;57.20
13332;DHT22;6735;51.456;12.626;2022-08-21T08:55:15;24.50;57.30
13332;DHT22;6735;51.456;12.626;2022-08-21T08:57:48;24.50;56.00
13332;DHT22;6735;51.456;12.626;2022-08-21T09:00:16;24.50;56.20
13332;DHT22;6735;51.456;12.626;2022-08-21T09:02:43;24.60;56.00
13332;DHT22;6735;51.456;12.626;2022-08-21T09:05:28;24.60;55.20
13332;DHT22;6735;51.456;12.626;2022-08-21T09:08:08;24.70;54.80
13332;DHT22;6735;51.456;12.626;2022-08-21T09:10:48;24.60;53.00
13332;DHT22;6735;51.456;12.626;2022-08-21T09:16:09;24.40;53.50
13332;DHT22;6735;51.456;12.626;2022-08-21T09:24:26;24.70;51.60
13332;DHT22;6735;51.456;12.626;2022-08-21T09:27:16;24.70;51.60
13332;DHT22;6735;51.456;12.626;2022-08-21T09:29:44;24.80;50.70
13332;DHT22;6735;51.456;12.626;2022-08-21T09:32:17;24.80;51.30
13332;DHT22;6735;51.456;12.626;2022-08-21T09:35:00;24.70;51.70
13332;DHT22;6735;51.456;12.626;2022-08-21T09:37:28;25.10;50.10
13332;DHT22;6735;51.456;12.626;2022-08-21T09:39:54;25.20;50.40
13332;DHT22;6735;51.456;12.626;2022-08-21T09:42:29;25.40;49.90
13332;DHT22;6735;51.456;12.626;2022-08-21T09:45:14;25.60;49.60
13332;DHT22;6735;51.456;12.626;2022-08-21T09:47:41;25.80;48.60
13332;DHT22;6735;51.456;12.626;2022-08-21T09:50:12;26.10;48.60
13332;DHT22;6735;51.456;12.626;2022-08-21T09:52:44;26.20;48.00
13332;DHT22;6735;51.456;12.626;2022-08-21T09:55:59;26.20;47.80
13332;DHT22;6735;51.456;12.626;2022-08-21T09:58:32;26.40;47.60
13332;DHT22;6735;51.456;12.626;2022-08-21T10:00:59;26.80;45.90
13332;DHT22;6735;51.456;12.626;2022-08-21T10:03:26;26.70;46.90
13332;DHT22;6735;51.456;12.626;2022-08-21T10:06:06;26.80;46.50
13332;DHT22;6735;51.456;12.626;2022-08-21T10:08:36;26.70;44.20
13332;DHT22;6735;51.456;12.626;2022-08-21T10:11:06;26.80;44.10
13332;DHT22;6735;51.456;12.626;2022-08-21T10:19:07;26.80;41.50
13332;DHT22;6735;51.456;12.626;2022-08-21T10:21:43;27.00;42.70
13332;DHT22;6735;51.456;12.626;2022-08-21T10:24:36;27.20;41.60
13332;DHT22;6735;51.456;12.626;2022-08-21T10:30:12;27.50;40.60
13332;DHT22;6735;51.456;12.626;2022-08-21T10:33:09;27.70;40.90
13332;DHT22;6735;51.456;12.626;2022-08-21T10:35:41;27.50;39.10
13332;DHT22;6735;51.456;12.626;2022-08-21T10:41:39;27.50;38.90
13332;DHT22;6735;51.456;12.626;2022-08-21T10:44:22;27.40;39.00
13332;DHT22;6735;51.456;12.626;2022-08-21T10:46:58;27.20;38.90
13332;DHT22;6735;51.456;12.626;2022-08-21T10:49:45;27.20;40.40
13332;DHT22;6735;51.456;12.626;2022-08-21T10:55:21;26.80;40.20
13332;DHT22;6735;51.456;12.626;2022-08-21T10:57:57;26.90;39.30
13332;DHT22;6735;51.456;12.626;2022-08-21T11:00:29;27.00;39.80
13332;DHT22;6735;51.456;12.626;2022-08-21T11:03:07;26.70;41.00
13332;DHT22;6735;51.456;12.626;2022-08-21T11:05:40;26.60;41.80
13332;DHT22;6735;51.456;12.626;2022-08-21T11:08:11;26.50;41.50
13332;DHT22;6735;51.456;12.626;2022-08-21T11:10:45;26.40;41.70
13332;DHT22;6735;51.456;12.626;2022-08-21T11:16:09;26.50;42.00
13332;DHT22;6735;51.456;12.626;2022-08-21T11:18:43;26.40;41.50
13332;DHT22;6735;51.456;12.626;2022-08-21T11:26:52;26.30;41.50
13332;DHT22;6735;51.456;12.626;2022-08-21T11:29:38;26.20;42.00
13332;DHT22;6735;51.456;12.626;2022-08-21T11:32:26;26.30;41.50
13332;DHT22;6735;51.456;12.626;2022-08-21T11:38:05;26.50;42.00
13332;DHT22;6735;51.456;12.626;2022-08-21T11:41:08;26.50;41.30
13332;DHT22;6735;51.456;12.626;2022-08-21T11:43:48;26.60;41.60
13332;DHT22;6735;51.456;12.626;2022-08-21T11:49:28;26.50;40.40
13332;DHT22;6735;51.456;12.626;2022-08-21T11:52:02;26.60;41.60
13332;DHT22;6735;51.456;12.626;2022-08-21T11:57:28;27.10;41.00
13332;DHT22;6735;51.456;12.626;2022-08-21T12:00:05;27.30;40.90
13332;DHT22;6735;51.456;12.626;2022-08-21T12:02:46;27.40;39.90
13332;DHT22;6735;51.456;12.626;2022-08-21T12:08:00;27.60;39.80
13332;DHT22;6735;51.456;12.626;2022-08-21T12:10:33;27.70;39.50
13332;DHT22;6735;51.456;12.626;2022-08-21T12:13:21;27.50;39.80
13332;DHT22;6735;51.456;12.626;2022-08-21T12:15:47;27.30;39.80
13332;DHT22;6735;51.456;12.626;2022-08-21T12:18:29;27.50;40.60
13332;DHT22;6735;51.456;12.626;2022-08-21T12:21:15;27.90;38.90
13332;DHT22;6735;51.456;12.626;2022-08-21T12:23:49;28.20;38.70
13332;DHT22;6735;51.456;12.626;2022-08-21T12:29:03;28.30;38.00
13332;DHT22;6735;51.456;12.626;2022-08-21T12:31:29;28.30;38.20
13332;DHT22;6735;51.456;12.626;2022-08-21T12:34:01;28.40;38.90
13332;DHT22;6735;51.456;12.626;2022-08-21T12:36:52;28.40;38.70
13332;DHT22;6735;51.456;12.626;2022-08-21T12:39:23;28.40;37.50
13332;DHT22;6735;51.456;12.626;2022-08-21T12:42:11;27.80;39.60
13332;DHT22;6735;51.456;12.626;2022-08-21T12:44:53;27.90;39.80
13332;DHT22;6735;51.456;12.626;2022-08-21T12:47:29;28.20;39.00
13332;DHT22;6735;51.456;12.626;2022-08-21T12:50:29;28.20;39.00
13332;DHT22;6735;51.456;12.626;2022-08-21T12:55:43;27.90;39.80
13332;DHT22;6735;51.456;12.626;2022-08-21T12:58:20;27.80;40.00
13332;DHT22;6735;51.456;12.626;2022-08-21T13:01:00;28.20;37.90
13332;DHT22;6735;51.456;12.626;2022-08-21T13:03:26;28.50;38.20
13332;DHT22;6735;51.456;12.626;2022-08-21T13:05:53;28.60;38.30
13332;DHT22;6735;51.456;12.626;2022-08-21T13:08:21;28.70;38.50
13332;DHT22;6735;51.456;12.626;2022-08-21T13:10:49;28.70;38.30
13332;DHT22;6735;51.456;12.626;2022-08-21T13:13:24;28.90;37.90
13332;DHT22;6735;51.456;12.626;2022-08-21T13:16:06;28.70;38.30
13332;DHT22;6735;51.456;12.626;2022-08-21T13:18:39;28.70;37.80
13332;DHT22;6735;51.456;12.626;2022-08-21T13:21:16;28.70;37.50
13332;DHT22;6735;51.456;12.626;2022-08-21T13:23:41;28.70;37.60
13332;DHT22;6735;51.456;12.626;2022-08-21T13:26:18;28.60;37.50
13332;DHT22;6735;51.456;12.626;2022-08-21T13:28:44;28.60;37.10
13332;DHT22;6735;51.456;12.626;2022-08-21T13:31:16;28.60;37.80
13332;DHT22;6735;51.456;12.626;2022-08-21T13:33:41;28.60;37.50
13332;DHT22;6735;51.456;12.626;2022-08-21T13:36:20;28.50;38.00
13332;DHT22;6735;51.456;12.626;2022-08-21T13:38:50;28.40;37.90
13332;DHT22;6735;51.456;12.626;2022-08-21T13:41:29;28.00;38.70
13332;DHT22;6735;51.456;12.626;2022-08-21T13:44:02;27.80;38.70
13332;DHT22;6735;51.456;12.626;2022-08-21T13:46:31;27.80;39.10
13332;DHT22;6735;51.456;12.626;2022-08-21T13:48:59;27.60;38.90
13332;DHT22;6735;51.456;12.626;2022-08-21T13:51:25;27.30;39.10
13332;DHT22;6735;51.456;12.626;2022-08-21T13:53:53;27.40;39.00
13332;DHT22;6735;51.456;12.626;2022-08-21T13:56:29;27.70;38.50
13332;DHT22;6735;51.456;12.626;2022-08-21T13:58:57;27.70;38.60
13332;DHT22;6735;51.456;12.626;2022-08-21T14:01:32;27.70;39.30
13332;DHT22;6735;51.456;12.626;2022-08-21T14:04:05;28.00;38.00
13332;DHT22;6735;51.456;12.626;2022-08-21T14:06:36;27.70;38.40
13332;DHT22;6735;51.456;12.626;2022-08-21T14:09:10;27.60;38.00
13332;DHT22;6735;51.456;12.626;2022-08-21T14:11:36;27.60;37.80
13332;DHT22;6735;51.456;12.626;2022-08-21T14:14:07;27.60;37.80
13332;DHT22;6735;51.456;12.626;2022-08-21T14:16:56;27.50;38.50
13332;DHT22;6735;51.456;12.626;2022-08-21T14:19:25;27.50;37.30
13332;DHT22;6735;51.456;12.626;2022-08-21T14:21:51;27.40;38.30
13332;DHT22;6735;51.456;12.626;2022-08-21T14:26:54;27.40;37.70
13332;DHT22;6735;51.456;12.626;2022-08-21T14:29:22;27.40;38.20
13332;DHT22;6735;51.456;12.626;2022-08-21T14:31:57;27.70;38.10
13332;DHT22;6735;51.456;12.626;2022-08-21T14:34:26;27.90;37.80
13332;DHT22;6735;51.456;12.626;2022-08-21T14:36:52;27.90;37.60
13332;DHT22;6735;51.456;12.626;2022-08-21T14:39:18;27.60;37.80
13332;DHT22;6735;51.456;12.626;2022-08-21T14:41:45;27.60;37.60
13332;DHT22;6735;51.456;12.626;2022-08-21T14:44:13;27.40;38.00
13332;DHT22;6735;51.456;12.626;2022-08-21T14:46:39;27.20;38.10
13332;DHT22;6735;51.456;12.626;2022-08-21T14:49:04;27.10;38.00
13332;DHT22;6735;51.456;12.626;2022-08-21T14:51:30;27.00;38.70
13332;DHT22;6735;51.456;12.626;2022-08-21T14:53:56;27.00;39.30
13332;DHT22;6735;51.456;12.626;2022-08-21T14:56:21;26.90;39.20
13332;DHT22;6735;51.456;12.626;2022-08-21T14:58:49;26.80;39.70
13332;DHT22;6735;51.456;12.626;2022-08-21T15:01:17;26.70;39.60
13332;DHT22;6735;51.456;12.626;2022-08-21T15:03:43;26.80;39.70
13332;DHT22;6735;51.456;12.626;2022-08-21T15:06:10;26.70;39.90
13332;DHT22;6735;51.456;12.626;2022-08-21T15:08:35;26.80;40.10
13332;DHT22;6735;51.456;12.626;2022-08-21T15:11:02;26.90;40.20
13332;DHT22;6735;51.456;12.626;2022-08-21T15:13:28;27.10;40.00
13332;DHT22;6735;51.456;12.626;2022-08-21T15:15:54;27.20;40.00
13332;DHT22;6735;51.456;12.626;2022-08-21T15:18:22;27.20;40.30
13332;DHT22;6735;51.456;12.626;2022-08-21T15:20:47;27.10;39.90
13332;DHT22;6735;51.456;12.626;2022-08-21T15:23:13;27.00;39.50
13332;DHT22;6735;51.456;12.626;2022-08-21T15:25:41;26.70;39.60
13332;DHT22;6735;51.456;12.626;2022-08-21T15:28:08;26.70;39.60
13332;DHT22;6735;51.456;12.626;2022-08-21T15:30:35;26.60;39.70
13332;DHT22;6735;51.456;12.626;2022-08-21T15:33:00;26.50;39.60
13332;DHT22;6735;51.456;12.626;2022-08-21T15:35:26;26.40;39.70
13332;DHT22;6735;51.456;12.626;2022-08-21T15:37:51;26.20;40.20
13332;DHT22;6735;51.456;12.626;2022-08-21T15:40:17;26.20;40.50
13332;DHT22;6735;51.456;12.626;2022-08-21T15:42:43;26.20;40.20
13332;DHT22;6735;51.456;12.626;2022-08-21T15:45:10;26.00;40.70
13332;DHT22;6735;51.456;12.626;2022-08-21T15:47:37;26.00;40.80
13332;DHT22;6735;51.456;12.626;2022-08-21T15:50:08;26.00;40.50
13332;DHT22;6735;51.456;12.626;2022-08-21T15:52:34;26.00;40.50
13332;DHT22;6735;51.456;12.626;2022-08-21T15:55:00;26.10;40.90
13332;DHT22;6735;51.456;12.626;2022-08-21T15:57:26;26.00;40.70
13332;DHT22;6735;51.456;12.626;2022-08-21T15:59:55;25.90;40.70
13332;DHT22;6735;51.456;12.626;2022-08-21T16:02:30;25.80;41.20
13332;DHT22;6735;51.456;12.626;2022-08-21T16:04:56;25.70;40.50
13332;DHT22;6735;51.456;12.626;2022-08-21T16:07:22;25.80;40.80
13332;DHT22;6735;51.456;12.626;2022-08-21T16:09:48;25.70;41.20
13332;DHT22;6735;51.456;12.626;2022-08-21T16:12:21;25.70;41.20
13332;DHT22;6735;51.456;12.626;2022-08-21T16:14:47;25.70;41.60
13332;DHT22;6735;51.456;12.626;2022-08-21T16:17:15;25.50;41.70
13332;DHT22;6735;51.456;12.626;2022-08-21T16:19:40;25.40;41.80
13332;DHT22;6735;51.456;12.626;2022-08-21T16:22:06;25.40;42.30
13332;DHT22;6735;51.456;12.626;2022-08-21T16:24:31;25.30;42.20
13332;DHT22;6735;51.456;12.626;2022-08-21T16:26:57;25.20;42.30
13332;DHT22;6735;51.456;12.626;2022-08-21T16:29:22;25.20;42.80
13332;DHT22;6735;51.456;12.626;2022-08-21T16:31:48;25.00;43.00
13332;DHT22;6735;51.456;12.626;2022-08-21T16:34:17;25.00;43.00